sensor_id;sensor_type;location;lat;lon;timestamp;P1;durP1;ratioP1;P2;durP2;ratioP2
49626;SDS011;35527;54.616;39.786;2023-06-24T00:02:18;58.63;;;39.45;;
49626;SDS011;35527;54.616;39.786;2023-06-24T00:05:24;62.25;;;40.50;;
49626;SDS011;35527;54.616;39.786;2023-06-24T00:08:27;59.40;;;39.42;;
49626;SDS011;35527;54.616;39.786;2023-06-24T00:11:40;61.95;;;39.50;;
49626;SDS011;35527;54.616;39.786;2023-06-24T00:14:43;60.28;;;41.00;;
49626;SDS011;35527;54.616;39.786;2023-06-24T00:17:48;63.03;;;41.47;;
49626;SDS011;35527;54.616;39.786;2023-06-24T00:20:52;60.72;;;40.00;;
49626;SDS011;35527;54.616;39.786;2023-06-24T00:23:58;60.95;;;39.35;;
49626;SDS011;35527;54.616;39.786;2023-06-24T00:27:07;68.65;;;40.83;;
49626;SDS011;35527;54.616;39.786;2023-06-24T00:30:13;93.03;;;43.03;;
49626;SDS011;35527;54.616;39.786;2023-06-24T00:33:16;156.23;;;42.90;;
49626;SDS011;35527;54.616;39.786;2023-06-24T00:36:25;170.02;;;42.47;;
49626;SDS011;35527;54.616;39.786;2023-06-24T00:39:28;162.80;;;38.50;;
49626;SDS011;35527;54.616;39.786;2023-06-24T00:42:33;147.68;;;38.95;;
49626;SDS011;35527;54.616;39.786;2023-06-24T00:45:36;353.63;;;57.05;;
49626;SDS011;35527;54.616;39.786;2023-06-24T00:48:39;85.63;;;30.85;;
49626;SDS011;35527;54.616;39.786;2023-06-24T00:51:44;71.85;;;31.55;;
49626;SDS011;35527;54.616;39.786;2023-06-24T00:54:56;43.33;;;28.55;;
49626;SDS011;35527;54.616;39.786;2023-06-24T00:58:01;41.40;;;27.67;;
49626;SDS011;35527;54.616;39.786;2023-06-24T01:01:05;37.53;;;26.45;;
49626;SDS011;35527;54.616;39.786;2023-06-24T01:04:13;37.90;;;26.80;;
49626;SDS011;35527;54.616;39.786;2023-06-24T01:07:24;31.67;;;25.00;;
49626;SDS011;35527;54.616;39.786;2023-06-24T01:10:28;36.80;;;25.30;;
49626;SDS011;35527;54.616;39.786;2023-06-24T01:13:30;33.90;;;24.52;;
49626;SDS011;35527;54.616;39.786;2023-06-24T01:34:10;26.98;;;18.95;;
49626;SDS011;35527;54.616;39.786;2023-06-24T01:37:19;39.13;;;25.17;;
49626;SDS011;35527;54.616;39.786;2023-06-24T01:43:43;26.90;;;18.17;;
49626;SDS011;35527;54.616;39.786;2023-06-24T01:46:48;33.47;;;22.85;;
49626;SDS011;35527;54.616;39.786;2023-06-24T01:49:57;37.47;;;23.55;;
49626;SDS011;35527;54.616;39.786;2023-06-24T01:53:06;38.50;;;24.60;;
49626;SDS011;35527;54.616;39.786;2023-06-24T01:56:11;35.55;;;22.45;;
49626;SDS011;35527;54.616;39.786;2023-06-24T01:59:16;40.08;;;25.30;;
49626;SDS011;35527;54.616;39.786;2023-06-24T02:02:21;48.03;;;28.40;;
49626;SDS011;35527;54.616;39.786;2023-06-24T02:05:31;43.20;;;26.70;;
49626;SDS011;35527;54.616;39.786;2023-06-24T02:08:35;31.65;;;21.60;;
49626;SDS011;35527;54.616;39.786;2023-06-24T02:11:46;37.47;;;23.90;;
49626;SDS011;35527;54.616;39.786;2023-06-24T02:14:50;39.17;;;25.23;;
49626;SDS011;35527;54.616;39.786;2023-06-24T02:17:57;40.95;;;25.70;;
49626;SDS011;35527;54.616;39.786;2023-06-24T02:21:06;48.70;;;29.10;;
49626;SDS011;35527;54.616;39.786;2023-06-24T02:24:10;34.70;;;22.95;;
49626;SDS011;35527;54.616;39.786;2023-06-24T02:27:14;39.55;;;24.08;;
49626;SDS011;35527;54.616;39.786;2023-06-24T02:30:20;36.67;;;24.05;;
49626;SDS011;35527;54.616;39.786;2023-06-24T02:33:25;32.40;;;21.98;;
49626;SDS011;35527;54.616;39.786;2023-06-24T02:36:31;30.55;;;21.50;;
49626;SDS011;35527;54.616;39.786;2023-06-24T02:39:37;25.80;;;18.52;;
49626;SDS011;35527;54.616;39.786;2023-06-24T02:42:46;24.83;;;18.13;;
49626;SDS011;35527;54.616;39.786;2023-06-24T02:45:49;22.25;;;17.58;;
49626;SDS011;35527;54.616;39.786;2023-06-24T02:48:55;20.00;;;15.82;;
49626;SDS011;35527;54.616;39.786;2023-06-24T02:52:01;18.25;;;14.80;;
49626;SDS011;35527;54.616;39.786;2023-06-24T02:55:06;16.35;;;13.95;;
49626;SDS011;35527;54.616;39.786;2023-06-24T02:58:11;18.00;;;14.48;;
49626;SDS011;35527;54.616;39.786;2023-06-24T03:01:35;15.15;;;13.23;;
49626;SDS011;35527;54.616;39.786;2023-06-24T03:04:42;16.15;;;13.18;;
49626;SDS011;35527;54.616;39.786;2023-06-24T03:07:48;15.52;;;12.73;;
49626;SDS011;35527;54.616;39.786;2023-06-24T03:10:54;13.25;;;11.85;;
49626;SDS011;35527;54.616;39.786;2023-06-24T03:14:03;13.07;;;11.38;;
49626;SDS011;35527;54.616;39.786;2023-06-24T03:17:13;14.02;;;10.77;;
49626;SDS011;35527;54.616;39.786;2023-06-24T03:20:19;14.07;;;11.38;;
49626;SDS011;35527;54.616;39.786;2023-06-24T03:23:22;12.55;;;10.23;;
49626;SDS011;35527;54.616;39.786;2023-06-24T03:26:31;11.05;;;9.55;;
49626;SDS011;35527;54.616;39.786;2023-06-24T03:29:39;11.18;;;9.18;;
49626;SDS011;35527;54.616;39.786;2023-06-24T03:32:47;10.15;;;8.93;;
49626;SDS011;35527;54.616;39.786;2023-06-24T03:35:52;11.50;;;8.38;;
49626;SDS011;35527;54.616;39.786;2023-06-24T03:39:01;11.55;;;8.57;;
49626;SDS011;35527;54.616;39.786;2023-06-24T03:42:09;9.98;;;8.35;;
49626;SDS011;35527;54.616;39.786;2023-06-24T03:45:13;10.23;;;8.20;;
49626;SDS011;35527;54.616;39.786;2023-06-24T03:48:17;11.33;;;9.20;;
49626;SDS011;35527;54.616;39.786;2023-06-24T03:51:21;9.77;;;8.50;;
49626;SDS011;35527;54.616;39.786;2023-06-24T03:54:28;9.88;;;8.30;;
49626;SDS011;35527;54.616;39.786;2023-06-24T03:57:31;9.60;;;8.10;;
49626;SDS011;35527;54.616;39.786;2023-06-24T04:00:34;8.93;;;7.53;;
49626;SDS011;35527;54.616;39.786;2023-06-24T04:03:42;10.07;;;7.93;;
49626;SDS011;35527;54.616;39.786;2023-06-24T04:06:48;9.15;;;7.30;;
49626;SDS011;35527;54.616;39.786;2023-06-24T04:09:53;8.80;;;7.55;;
49626;SDS011;35527;54.616;39.786;2023-06-24T04:12:58;8.07;;;6.07;;
49626;SDS011;35527;54.616;39.786;2023-06-24T04:16:01;8.32;;;6.90;;
49626;SDS011;35527;54.616;39.786;2023-06-24T04:19:06;8.73;;;7.00;;
49626;SDS011;35527;54.616;39.786;2023-06-24T04:22:12;9.23;;;6.80;;
49626;SDS011;35527;54.616;39.786;2023-06-24T04:25:16;8.33;;;7.07;;
49626;SDS011;35527;54.616;39.786;2023-06-24T04:28:19;8.52;;;6.03;;
49626;SDS011;35527;54.616;39.786;2023-06-24T04:31:26;8.32;;;6.72;;
49626;SDS011;35527;54.616;39.786;2023-06-24T04:34:32;7.45;;;5.97;;
49626;SDS011;35527;54.616;39.786;2023-06-24T04:37:34;7.30;;;6.38;;
49626;SDS011;35527;54.616;39.786;2023-06-24T04:40:41;7.55;;;5.63;;
49626;SDS011;35527;54.616;39.786;2023-06-24T04:43:45;7.10;;;5.83;;
49626;SDS011;35527;54.616;39.786;2023-06-24T04:46:49;7.47;;;5.72;;
49626;SDS011;35527;54.616;39.786;2023-06-24T04:49:54;7.65;;;6.30;;
49626;SDS011;35527;54.616;39.786;2023-06-24T04:52:57;8.02;;;6.32;;
49626;SDS011;35527;54.616;39.786;2023-06-24T04:56:03;7.57;;;6.22;;
49626;SDS011;35527;54.616;39.786;2023-06-24T04:59:09;9.85;;;6.78;;
49626;SDS011;35527;54.616;39.786;2023-06-24T05:02:12;7.75;;;6.50;;
49626;SDS011;35527;54.616;39.786;2023-06-24T05:05:14;9.13;;;6.45;;
49626;SDS011;35527;54.616;39.786;2023-06-24T05:08:19;8.55;;;6.57;;
49626;SDS011;35527;54.616;39.786;2023-06-24T05:11:22;7.88;;;5.90;;
49626;SDS011;35527;54.616;39.786;2023-06-24T05:14:25;7.70;;;6.22;;
49626;SDS011;35527;54.616;39.786;2023-06-24T05:17:28;8.77;;;6.57;;
49626;SDS011;35527;54.616;39.786;2023-06-24T05:20:31;8.77;;;6.15;;
49626;SDS011;35527;54.616;39.786;2023-06-24T05:23:36;8.43;;;5.97;;
49626;SDS011;35527;54.616;39.786;2023-06-24T05:26:39;8.57;;;6.68;;
49626;SDS011;35527;54.616;39.786;2023-06-24T05:29:45;7.50;;;6.28;;
49626;SDS011;35527;54.616;39.786;2023-06-24T05:32:50;9.25;;;6.82;;
49626;SDS011;35527;54.616;39.786;2023-06-24T05:35:56;8.52;;;6.65;;
49626;SDS011;35527;54.616;39.786;2023-06-24T05:38:59;8.48;;;6.32;;
49626;SDS011;35527;54.616;39.786;2023-06-24T05:42:02;7.80;;;7.00;;
49626;SDS011;35527;54.616;39.786;2023-06-24T05:45:08;8.27;;;7.18;;
49626;SDS011;35527;54.616;39.786;2023-06-24T05:48:12;9.00;;;6.78;;
49626;SDS011;35527;54.616;39.786;2023-06-24T05:51:16;9.48;;;7.30;;
49626;SDS011;35527;54.616;39.786;2023-06-24T05:54:20;10.48;;;6.57;;
49626;SDS011;35527;54.616;39.786;2023-06-24T05:57:24;8.35;;;6.97;;
49626;SDS011;35527;54.616;39.786;2023-06-24T06:00:29;9.10;;;7.03;;
49626;SDS011;35527;54.616;39.786;2023-06-24T06:03:33;11.32;;;6.50;;
49626;SDS011;35527;54.616;39.786;2023-06-24T06:06:36;12.25;;;6.97;;
49626;SDS011;35527;54.616;39.786;2023-06-24T06:09:40;8.98;;;7.30;;
49626;SDS011;35527;54.616;39.786;2023-06-24T06:12:44;9.07;;;6.78;;
49626;SDS011;35527;54.616;39.786;2023-06-24T06:15:47;8.80;;;6.80;;
49626;SDS011;35527;54.616;39.786;2023-06-24T06:18:51;10.20;;;6.80;;
49626;SDS011;35527;54.616;39.786;2023-06-24T06:21:59;9.77;;;6.55;;
49626;SDS011;35527;54.616;39.786;2023-06-24T06:25:06;7.82;;;6.07;;
49626;SDS011;35527;54.616;39.786;2023-06-24T06:28:09;7.70;;;6.43;;
49626;SDS011;35527;54.616;39.786;2023-06-24T06:31:13;8.45;;;6.05;;
49626;SDS011;35527;54.616;39.786;2023-06-24T06:34:16;7.07;;;5.63;;
49626;SDS011;35527;54.616;39.786;2023-06-24T06:37:20;7.50;;;5.30;;
49626;SDS011;35527;54.616;39.786;2023-06-24T06:40:23;8.52;;;5.72;;
49626;SDS011;35527;54.616;39.786;2023-06-24T06:43:28;9.00;;;6.32;;
49626;SDS011;35527;54.616;39.786;2023-06-24T06:46:31;8.48;;;6.35;;
49626;SDS011;35527;54.616;39.786;2023-06-24T06:49:38;8.07;;;6.00;;
49626;SDS011;35527;54.616;39.786;2023-06-24T06:52:40;9.63;;;6.20;;
49626;SDS011;35527;54.616;39.786;2023-06-24T06:55:45;7.07;;;6.28;;
49626;SDS011;35527;54.616;39.786;2023-06-24T06:58:48;7.95;;;6.30;;
49626;SDS011;35527;54.616;39.786;2023-06-24T07:01:53;7.82;;;6.25;;
49626;SDS011;35527;54.616;39.786;2023-06-24T07:04:58;7.53;;;6.40;;
49626;SDS011;35527;54.616;39.786;2023-06-24T07:08:05;7.75;;;6.60;;
49626;SDS011;35527;54.616;39.786;2023-06-24T07:11:08;8.65;;;6.00;;
49626;SDS011;35527;54.616;39.786;2023-06-24T07:14:11;9.82;;;6.38;;
49626;SDS011;35527;54.616;39.786;2023-06-24T07:17:14;7.90;;;6.22;;
49626;SDS011;35527;54.616;39.786;2023-06-24T07:20:18;7.90;;;6.07;;
49626;SDS011;35527;54.616;39.786;2023-06-24T07:23:22;9.90;;;6.32;;
49626;SDS011;35527;54.616;39.786;2023-06-24T07:29:31;8.93;;;6.73;;
49626;SDS011;35527;54.616;39.786;2023-06-24T07:32:42;8.18;;;6.45;;
49626;SDS011;35527;54.616;39.786;2023-06-24T07:35:45;8.52;;;6.32;;
49626;SDS011;35527;54.616;39.786;2023-06-24T07:38:47;9.48;;;6.22;;
49626;SDS011;35527;54.616;39.786;2023-06-24T07:41:50;8.15;;;6.47;;
49626;SDS011;35527;54.616;39.786;2023-06-24T07:44:54;8.43;;;6.18;;
49626;SDS011;35527;54.616;39.786;2023-06-24T07:47:58;7.57;;;5.60;;
49626;SDS011;35527;54.616;39.786;2023-06-24T07:51:03;8.95;;;5.70;;
49626;SDS011;35527;54.616;39.786;2023-06-24T07:57:12;7.55;;;5.50;;
49626;SDS011;35527;54.616;39.786;2023-06-24T08:00:15;7.13;;;5.87;;
49626;SDS011;35527;54.616;39.786;2023-06-24T08:03:20;7.22;;;5.63;;
49626;SDS011;35527;54.616;39.786;2023-06-24T08:06:23;7.70;;;6.00;;
49626;SDS011;35527;54.616;39.786;2023-06-24T08:09:27;9.05;;;6.70;;
49626;SDS011;35527;54.616;39.786;2023-06-24T08:12:30;6.95;;;5.88;;
49626;SDS011;35527;54.616;39.786;2023-06-24T08:15:34;8.73;;;6.13;;
49626;SDS011;35527;54.616;39.786;2023-06-24T08:18:37;8.88;;;6.03;;
49626;SDS011;35527;54.616;39.786;2023-06-24T08:21:42;9.40;;;6.60;;
49626;SDS011;35527;54.616;39.786;2023-06-24T08:24:45;9.45;;;6.88;;
49626;SDS011;35527;54.616;39.786;2023-06-24T08:27:49;9.43;;;7.20;;
49626;SDS011;35527;54.616;39.786;2023-06-24T08:30:52;9.70;;;6.40;;
49626;SDS011;35527;54.616;39.786;2023-06-24T08:34:01;7.35;;;5.72;;
49626;SDS011;35527;54.616;39.786;2023-06-24T08:37:09;9.95;;;6.38;;
49626;SDS011;35527;54.616;39.786;2023-06-24T08:40:17;11.80;;;5.80;;
49626;SDS011;35527;54.616;39.786;2023-06-24T08:43:22;7.80;;;5.93;;
49626;SDS011;35527;54.616;39.786;2023-06-24T08:46:29;8.40;;;5.50;;
49626;SDS011;35527;54.616;39.786;2023-06-24T08:49:34;7.65;;;5.10;;
49626;SDS011;35527;54.616;39.786;2023-06-24T08:53:11;9.75;;;4.40;;
49626;SDS011;35527;54.616;39.786;2023-06-24T08:56:17;7.03;;;4.90;;
49626;SDS011;35527;54.616;39.786;2023-06-24T08:59:20;7.70;;;4.03;;
49626;SDS011;35527;54.616;39.786;2023-06-24T09:02:23;7.40;;;4.75;;
49626;SDS011;35527;54.616;39.786;2023-06-24T09:05:26;5.85;;;4.30;;
49626;SDS011;35527;54.616;39.786;2023-06-24T09:08:29;8.10;;;3.95;;
49626;SDS011;35527;54.616;39.786;2023-06-24T09:11:33;7.07;;;3.72;;
49626;SDS011;35527;54.616;39.786;2023-06-24T09:14:35;5.55;;;3.60;;
49626;SDS011;35527;54.616;39.786;2023-06-24T09:17:45;6.35;;;3.75;;
49626;SDS011;35527;54.616;39.786;2023-06-24T09:20:53;6.15;;;4.07;;
49626;SDS011;35527;54.616;39.786;2023-06-24T09:24:01;6.20;;;3.80;;
49626;SDS011;35527;54.616;39.786;2023-06-24T09:27:05;6.80;;;4.10;;
49626;SDS011;35527;54.616;39.786;2023-06-24T09:30:22;5.18;;;3.33;;
49626;SDS011;35527;54.616;39.786;2023-06-24T09:33:26;5.57;;;3.30;;
49626;SDS011;35527;54.616;39.786;2023-06-24T09:36:32;6.03;;;3.20;;
49626;SDS011;35527;54.616;39.786;2023-06-24T09:39:36;5.68;;;3.15;;
49626;SDS011;35527;54.616;39.786;2023-06-24T09:45:53;6.05;;;2.47;;
49626;SDS011;35527;54.616;39.786;2023-06-24T09:48:57;4.70;;;2.50;;
49626;SDS011;35527;54.616;39.786;2023-06-24T09:52:00;5.55;;;2.33;;
49626;SDS011;35527;54.616;39.786;2023-06-24T09:58:08;6.57;;;2.30;;
49626;SDS011;35527;54.616;39.786;2023-06-24T10:01:13;5.88;;;2.00;;
49626;SDS011;35527;54.616;39.786;2023-06-24T10:04:21;4.65;;;1.95;;
49626;SDS011;35527;54.616;39.786;2023-06-24T10:07:26;2.95;;;1.63;;
49626;SDS011;35527;54.616;39.786;2023-06-24T10:10:33;4.20;;;1.70;;
49626;SDS011;35527;54.616;39.786;2023-06-24T10:13:38;5.18;;;1.92;;
49626;SDS011;35527;54.616;39.786;2023-06-24T10:16:40;2.42;;;1.70;;
49626;SDS011;35527;54.616;39.786;2023-06-24T10:19:51;5.60;;;1.80;;
49626;SDS011;35527;54.616;39.786;2023-06-24T10:22:58;2.40;;;1.50;;
49626;SDS011;35527;54.616;39.786;2023-06-24T10:26:06;4.90;;;1.70;;
49626;SDS011;35527;54.616;39.786;2023-06-24T10:29:10;5.28;;;1.60;;
49626;SDS011;35527;54.616;39.786;2023-06-24T10:32:16;3.10;;;1.55;;
49626;SDS011;35527;54.616;39.786;2023-06-24T10:35:26;6.25;;;1.70;;
49626;SDS011;35527;54.616;39.786;2023-06-24T10:38:32;4.90;;;2.30;;
49626;SDS011;35527;54.616;39.786;2023-06-24T10:41:35;8.88;;;4.50;;
49626;SDS011;35527;54.616;39.786;2023-06-24T10:44:47;7.15;;;4.93;;
49626;SDS011;35527;54.616;39.786;2023-06-24T10:47:53;9.15;;;5.22;;
49626;SDS011;35527;54.616;39.786;2023-06-24T10:50:57;6.03;;;4.30;;
49626;SDS011;35527;54.616;39.786;2023-06-24T10:54:03;6.25;;;3.75;;
49626;SDS011;35527;54.616;39.786;2023-06-24T10:57:10;6.32;;;3.50;;
49626;SDS011;35527;54.616;39.786;2023-06-24T11:00:19;4.90;;;3.60;;
49626;SDS011;35527;54.616;39.786;2023-06-24T11:03:25;6.07;;;3.85;;
49626;SDS011;35527;54.616;39.786;2023-06-24T11:06:28;7.60;;;4.30;;
49626;SDS011;35527;54.616;39.786;2023-06-24T11:09:32;8.68;;;4.80;;
49626;SDS011;35527;54.616;39.786;2023-06-24T11:12:36;8.68;;;5.10;;
49626;SDS011;35527;54.616;39.786;2023-06-24T11:15:45;9.75;;;6.32;;
49626;SDS011;35527;54.616;39.786;2023-06-24T11:18:48;7.53;;;6.13;;
49626;SDS011;35527;54.616;39.786;2023-06-24T11:21:51;6.95;;;5.43;;
49626;SDS011;35527;54.616;39.786;2023-06-24T11:24:54;8.52;;;5.30;;
49626;SDS011;35527;54.616;39.786;2023-06-24T11:27:59;8.05;;;4.85;;
49626;SDS011;35527;54.616;39.786;2023-06-24T11:31:06;6.43;;;4.68;;
49626;SDS011;35527;54.616;39.786;2023-06-24T11:34:14;7.95;;;4.82;;
49626;SDS011;35527;54.616;39.786;2023-06-24T11:37:19;7.67;;;5.10;;
49626;SDS011;35527;54.616;39.786;2023-06-24T11:40:23;9.07;;;6.47;;
49626;SDS011;35527;54.616;39.786;2023-06-24T11:43:27;13.43;;;7.72;;
49626;SDS011;35527;54.616;39.786;2023-06-24T11:46:35;8.90;;;7.57;;
49626;SDS011;35527;54.616;39.786;2023-06-24T11:52:56;10.52;;;8.30;;
49626;SDS011;35527;54.616;39.786;2023-06-24T11:55:59;12.38;;;7.22;;
49626;SDS011;35527;54.616;39.786;2023-06-24T11:59:05;8.48;;;6.05;;
49626;SDS011;35527;54.616;39.786;2023-06-24T12:02:12;8.77;;;6.35;;
49626;SDS011;35527;54.616;39.786;2023-06-24T12:05:30;8.23;;;6.15;;
49626;SDS011;35527;54.616;39.786;2023-06-24T12:08:36;7.90;;;6.40;;
49626;SDS011;35527;54.616;39.786;2023-06-24T12:11:49;9.75;;;6.97;;
49626;SDS011;35527;54.616;39.786;2023-06-24T12:14:53;8.40;;;6.60;;
49626;SDS011;35527;54.616;39.786;2023-06-24T12:17:57;10.35;;;6.28;;
49626;SDS011;35527;54.616;39.786;2023-06-24T12:21:00;7.93;;;5.82;;
49626;SDS011;35527;54.616;39.786;2023-06-24T12:24:04;8.93;;;5.40;;
49626;SDS011;35527;54.616;39.786;2023-06-24T12:27:10;6.22;;;4.60;;
49626;SDS011;35527;54.616;39.786;2023-06-24T12:30:15;8.88;;;4.70;;
49626;SDS011;35527;54.616;39.786;2023-06-24T12:33:20;10.63;;;4.70;;
49626;SDS011;35527;54.616;39.786;2023-06-24T12:36:26;7.28;;;4.05;;
49626;SDS011;35527;54.616;39.786;2023-06-24T12:39:30;7.00;;;3.85;;
49626;SDS011;35527;54.616;39.786;2023-06-24T12:42:34;6.82;;;3.50;;
49626;SDS011;35527;54.616;39.786;2023-06-24T12:45:38;6.82;;;3.65;;
49626;SDS011;35527;54.616;39.786;2023-06-24T12:48:45;6.03;;;2.80;;
49626;SDS011;35527;54.616;39.786;2023-06-24T12:51:50;5.57;;;2.97;;
49626;SDS011;35527;54.616;39.786;2023-06-24T12:54:54;5.47;;;2.88;;
49626;SDS011;35527;54.616;39.786;2023-06-24T12:57:56;6.25;;;2.92;;
49626;SDS011;35527;54.616;39.786;2023-06-24T13:01:00;6.55;;;2.88;;
49626;SDS011;35527;54.616;39.786;2023-06-24T13:04:04;6.13;;;3.45;;
49626;SDS011;35527;54.616;39.786;2023-06-24T13:07:07;5.78;;;2.80;;
49626;SDS011;35527;54.616;39.786;2023-06-24T13:10:11;5.13;;;2.42;;
49626;SDS011;35527;54.616;39.786;2023-06-24T13:16:21;3.63;;;1.90;;
49626;SDS011;35527;54.616;39.786;2023-06-24T13:19:23;6.93;;;2.20;;
49626;SDS011;35527;54.616;39.786;2023-06-24T13:22:26;4.07;;;2.15;;
49626;SDS011;35527;54.616;39.786;2023-06-24T13:25:36;5.15;;;2.08;;
49626;SDS011;35527;54.616;39.786;2023-06-24T13:28:39;5.75;;;1.90;;
49626;SDS011;35527;54.616;39.786;2023-06-24T13:31:42;4.38;;;1.70;;
49626;SDS011;35527;54.616;39.786;2023-06-24T13:34:45;4.18;;;1.73;;
49626;SDS011;35527;54.616;39.786;2023-06-24T13:37:50;5.90;;;2.50;;
49626;SDS011;35527;54.616;39.786;2023-06-24T13:40:57;7.10;;;3.10;;
49626;SDS011;35527;54.616;39.786;2023-06-24T13:44:00;4.40;;;2.78;;
49626;SDS011;35527;54.616;39.786;2023-06-24T13:47:03;5.38;;;3.33;;
49626;SDS011;35527;54.616;39.786;2023-06-24T13:50:07;5.63;;;3.30;;
49626;SDS011;35527;54.616;39.786;2023-06-24T13:53:14;6.32;;;3.50;;
49626;SDS011;35527;54.616;39.786;2023-06-24T13:56:18;5.03;;;3.20;;
49626;SDS011;35527;54.616;39.786;2023-06-24T13:59:21;5.97;;;3.40;;
49626;SDS011;35527;54.616;39.786;2023-06-24T14:02:24;5.53;;;3.05;;
49626;SDS011;35527;54.616;39.786;2023-06-24T14:05:31;5.55;;;3.20;;
49626;SDS011;35527;54.616;39.786;2023-06-24T14:08:34;4.93;;;3.22;;
49626;SDS011;35527;54.616;39.786;2023-06-24T14:11:38;4.60;;;3.10;;
49626;SDS011;35527;54.616;39.786;2023-06-24T14:17:47;4.32;;;2.92;;
49626;SDS011;35527;54.616;39.786;2023-06-24T14:20:49;5.00;;;2.97;;
49626;SDS011;35527;54.616;39.786;2023-06-24T14:23:52;5.60;;;3.08;;
49626;SDS011;35527;54.616;39.786;2023-06-24T14:27:01;6.07;;;3.45;;
49626;SDS011;35527;54.616;39.786;2023-06-24T14:30:06;5.55;;;2.97;;
49626;SDS011;35527;54.616;39.786;2023-06-24T14:33:10;4.97;;;3.13;;
49626;SDS011;35527;54.616;39.786;2023-06-24T14:36:14;5.03;;;2.97;;
49626;SDS011;35527;54.616;39.786;2023-06-24T14:39:18;6.23;;;3.03;;
49626;SDS011;35527;54.616;39.786;2023-06-24T14:42:23;5.47;;;3.05;;
49626;SDS011;35527;54.616;39.786;2023-06-24T14:45:27;5.43;;;3.05;;
49626;SDS011;35527;54.616;39.786;2023-06-24T14:48:30;6.85;;;3.40;;
49626;SDS011;35527;54.616;39.786;2023-06-24T14:51:34;5.55;;;3.65;;
49626;SDS011;35527;54.616;39.786;2023-06-24T14:54:39;5.53;;;3.80;;
49626;SDS011;35527;54.616;39.786;2023-06-24T14:57:43;7.03;;;3.92;;
49626;SDS011;35527;54.616;39.786;2023-06-24T15:00:45;6.35;;;4.22;;
49626;SDS011;35527;54.616;39.786;2023-06-24T15:03:50;6.40;;;3.92;;
49626;SDS011;35527;54.616;39.786;2023-06-24T15:06:54;5.47;;;3.60;;
49626;SDS011;35527;54.616;39.786;2023-06-24T15:09:57;5.65;;;3.50;;
49626;SDS011;35527;54.616;39.786;2023-06-24T15:13:01;5.25;;;3.60;;
49626;SDS011;35527;54.616;39.786;2023-06-24T15:16:05;5.13;;;3.53;;
49626;SDS011;35527;54.616;39.786;2023-06-24T15:19:09;4.88;;;3.47;;
49626;SDS011;35527;54.616;39.786;2023-06-24T15:22:12;5.63;;;3.60;;
49626;SDS011;35527;54.616;39.786;2023-06-24T15:25:15;7.65;;;3.38;;
49626;SDS011;35527;54.616;39.786;2023-06-24T15:28:19;7.40;;;3.70;;
49626;SDS011;35527;54.616;39.786;2023-06-24T15:31:23;6.30;;;3.13;;
49626;SDS011;35527;54.616;39.786;2023-06-24T15:34:28;5.28;;;3.60;;
49626;SDS011;35527;54.616;39.786;2023-06-24T15:37:30;6.55;;;3.30;;
49626;SDS011;35527;54.616;39.786;2023-06-24T15:40:34;6.55;;;3.53;;
49626;SDS011;35527;54.616;39.786;2023-06-24T15:43:40;7.03;;;3.58;;
49626;SDS011;35527;54.616;39.786;2023-06-24T15:46:43;5.70;;;3.05;;
49626;SDS011;35527;54.616;39.786;2023-06-24T15:49:49;5.32;;;3.15;;
49626;SDS011;35527;54.616;39.786;2023-06-24T15:52:54;5.82;;;2.78;;
49626;SDS011;35527;54.616;39.786;2023-06-24T15:56:00;5.45;;;2.72;;
49626;SDS011;35527;54.616;39.786;2023-06-24T15:59:04;4.57;;;2.95;;
49626;SDS011;35527;54.616;39.786;2023-06-24T16:02:07;4.88;;;2.60;;
49626;SDS011;35527;54.616;39.786;2023-06-24T16:05:11;5.90;;;2.58;;
49626;SDS011;35527;54.616;39.786;2023-06-24T16:08:16;5.57;;;2.78;;
49626;SDS011;35527;54.616;39.786;2023-06-24T16:11:19;4.75;;;2.80;;
49626;SDS011;35527;54.616;39.786;2023-06-24T16:14:23;5.75;;;2.75;;
49626;SDS011;35527;54.616;39.786;2023-06-24T16:17:28;4.88;;;2.75;;
49626;SDS011;35527;54.616;39.786;2023-06-24T16:20:33;4.80;;;2.80;;
49626;SDS011;35527;54.616;39.786;2023-06-24T16:23:37;5.53;;;2.60;;
49626;SDS011;35527;54.616;39.786;2023-06-24T16:26:40;4.70;;;2.70;;
49626;SDS011;35527;54.616;39.786;2023-06-24T16:29:49;4.47;;;2.55;;
49626;SDS011;35527;54.616;39.786;2023-06-24T16:32:53;6.05;;;2.60;;
49626;SDS011;35527;54.616;39.786;2023-06-24T16:35:58;6.25;;;2.50;;
49626;SDS011;35527;54.616;39.786;2023-06-24T16:39:01;5.60;;;2.63;;
49626;SDS011;35527;54.616;39.786;2023-06-24T16:42:06;4.32;;;2.30;;
49626;SDS011;35527;54.616;39.786;2023-06-24T16:45:10;3.80;;;2.30;;
49626;SDS011;35527;54.616;39.786;2023-06-24T16:48:14;4.77;;;2.30;;
49626;SDS011;35527;54.616;39.786;2023-06-24T16:51:18;4.28;;;2.17;;
49626;SDS011;35527;54.616;39.786;2023-06-24T16:54:24;5.07;;;2.53;;
49626;SDS011;35527;54.616;39.786;2023-06-24T16:57:28;4.50;;;2.40;;
49626;SDS011;35527;54.616;39.786;2023-06-24T17:00:32;4.22;;;2.20;;
49626;SDS011;35527;54.616;39.786;2023-06-24T17:03:35;3.90;;;2.40;;
49626;SDS011;35527;54.616;39.786;2023-06-24T17:06:40;4.20;;;2.50;;
49626;SDS011;35527;54.616;39.786;2023-06-24T17:09:46;5.60;;;2.80;;
49626;SDS011;35527;54.616;39.786;2023-06-24T17:12:48;4.10;;;2.30;;
49626;SDS011;35527;54.616;39.786;2023-06-24T17:15:51;4.10;;;2.40;;
49626;SDS011;35527;54.616;39.786;2023-06-24T17:18:56;4.32;;;2.42;;
49626;SDS011;35527;54.616;39.786;2023-06-24T17:22:00;4.10;;;2.40;;
49626;SDS011;35527;54.616;39.786;2023-06-24T17:25:04;5.05;;;2.60;;
49626;SDS011;35527;54.616;39.786;2023-06-24T17:28:07;3.50;;;2.08;;
49626;SDS011;35527;54.616;39.786;2023-06-24T17:34:16;4.85;;;2.60;;
49626;SDS011;35527;54.616;39.786;2023-06-24T17:40:23;5.03;;;2.30;;
49626;SDS011;35527;54.616;39.786;2023-06-24T17:43:27;5.03;;;2.45;;
49626;SDS011;35527;54.616;39.786;2023-06-24T17:46:31;7.32;;;2.50;;
49626;SDS011;35527;54.616;39.786;2023-06-24T17:49:36;5.70;;;2.55;;
49626;SDS011;35527;54.616;39.786;2023-06-24T17:52:39;4.53;;;2.40;;
49626;SDS011;35527;54.616;39.786;2023-06-24T17:55:47;4.72;;;2.38;;
49626;SDS011;35527;54.616;39.786;2023-06-24T17:58:51;4.05;;;2.38;;
49626;SDS011;35527;54.616;39.786;2023-06-24T18:01:59;5.85;;;2.75;;
49626;SDS011;35527;54.616;39.786;2023-06-24T18:05:02;5.03;;;2.63;;
49626;SDS011;35527;54.616;39.786;2023-06-24T18:08:10;4.68;;;2.50;;
49626;SDS011;35527;54.616;39.786;2023-06-24T18:11:19;5.60;;;2.17;;
49626;SDS011;35527;54.616;39.786;2023-06-24T18:14:24;3.80;;;1.92;;
49626;SDS011;35527;54.616;39.786;2023-06-24T18:17:27;3.20;;;1.90;;
49626;SDS011;35527;54.616;39.786;2023-06-24T18:20:31;5.43;;;2.15;;
49626;SDS011;35527;54.616;39.786;2023-06-24T18:23:37;4.65;;;2.00;;
49626;SDS011;35527;54.616;39.786;2023-06-24T18:26:40;4.43;;;2.13;;
49626;SDS011;35527;54.616;39.786;2023-06-24T18:29:44;3.30;;;1.90;;
49626;SDS011;35527;54.616;39.786;2023-06-24T18:32:47;3.28;;;1.77;;
49626;SDS011;35527;54.616;39.786;2023-06-24T18:35:50;4.72;;;2.05;;
49626;SDS011;35527;54.616;39.786;2023-06-24T18:38:55;3.67;;;2.08;;
49626;SDS011;35527;54.616;39.786;2023-06-24T18:41:58;3.72;;;1.95;;
49626;SDS011;35527;54.616;39.786;2023-06-24T18:45:01;4.88;;;2.08;;
49626;SDS011;35527;54.616;39.786;2023-06-24T18:48:06;5.20;;;2.50;;
49626;SDS011;35527;54.616;39.786;2023-06-24T18:51:09;5.38;;;2.78;;
49626;SDS011;35527;54.616;39.786;2023-06-24T18:54:11;4.20;;;2.55;;
49626;SDS011;35527;54.616;39.786;2023-06-24T18:57:21;4.70;;;2.67;;
49626;SDS011;35527;54.616;39.786;2023-06-24T19:00:24;5.03;;;2.27;;